createdAt,value
2022-08-04T06:14:00.161Z,4.63
2022-08-04T06:16:46.020Z,4.85
2022-08-04T06:20:03.401Z,4.93
2022-08-04T06:22:31.279Z,4.50
2022-08-04T06:25:12.163Z,4.15
2022-08-04T06:27:50.138Z,4.60
2022-08-04T06:30:35.146Z,4.72
2022-08-04T06:33:25.077Z,4.43
2022-08-04T06:36:03.947Z,5.10
2022-08-04T06:38:41.129Z,5.30
2022-08-04T06:41:17.816Z,4.80
2022-08-04T06:43:56.865Z,4.88
2022-08-04T06:46:40.923Z,4.85
2022-08-04T06:49:20.845Z,4.03
2022-08-04T06:52:00.371Z,4.60
2022-08-04T06:54:37.296Z,4.53
2022-08-04T06:57:17.429Z,4.60
2022-08-04T07:00:01.263Z,4.75
2022-08-04T07:02:56.588Z,4.78
2022-08-04T07:05:34.629Z,4.53
2022-08-04T07:08:13.377Z,4.82
2022-08-04T07:10:51.253Z,4.38
2022-08-04T07:13:29.636Z,4.47
2022-08-04T07:16:08.035Z,4.60
2022-08-04T07:18:47.671Z,4.25
2022-08-04T07:21:28.250Z,4.80
2022-08-04T07:24:04.951Z,4.60
2022-08-04T07:26:44.322Z,4.90
2022-08-04T07:29:21.712Z,4.55
2022-08-04T07:32:00.632Z,4.55
2022-08-04T07:34:41.981Z,4.25
2022-08-04T07:37:20.785Z,4.28
2022-08-04T07:39:57.890Z,4.07
2022-08-04T07:42:35.311Z,4.10
2022-08-04T07:45:14.290Z,4.20
2022-08-04T07:48:04.770Z,4.13
2022-08-04T07:50:46.580Z,4.28
2022-08-04T07:53:55.047Z,4.28
2022-08-04T07:56:34.169Z,4.65
2022-08-04T07:59:11.740Z,4.13
2022-08-04T08:01:49.471Z,4.13
2022-08-04T08:04:27.530Z,4.40
2022-08-04T08:07:07.407Z,3.90
2022-08-04T08:09:45.093Z,4.10
2022-08-04T08:12:38.494Z,4.07
2022-08-04T08:15:20.490Z,3.97
2022-08-04T08:17:57.830Z,4.13
2022-08-04T08:20:37.648Z,4.05
2022-08-04T08:23:16.901Z,3.63
2022-08-04T08:25:54.264Z,4.28
2022-08-04T08:28:31.551Z,3.67
2022-08-04T08:31:08.691Z,4.03
2022-08-04T08:33:46.361Z,3.45
2022-08-04T08:36:30.669Z,3.70
2022-08-04T08:39:21.649Z,3.70
2022-08-04T08:42:45.138Z,6.25
2022-08-04T08:45:56.200Z,3.17
2022-08-04T08:49:10.318Z,3.20
2022-08-04T08:52:56.271Z,3.60
2022-08-04T08:55:57.811Z,3.38
2022-08-04T08:58:59.868Z,2.92
2022-08-04T09:02:01.483Z,3.22
2022-08-04T09:05:18.130Z,3.33
2022-08-04T09:08:14.909Z,3.03
2022-08-04T09:11:02.127Z,3.70
2022-08-04T09:13:47.045Z,3.83
2022-08-04T09:16:30.361Z,3.30
2022-08-04T09:19:22.942Z,3.60
2022-08-04T09:22:23.070Z,3.67
2022-08-04T09:25:07.490Z,3.03
2022-08-04T09:27:55.784Z,3.10
2022-08-04T09:30:43.262Z,3.10
2022-08-04T09:33:45.284Z,3.20
2022-08-04T09:36:36.195Z,3.17
2022-08-04T09:39:27.753Z,3.30
2022-08-04T09:42:19.412Z,2.85
2022-08-04T09:45:21.287Z,2.83
2022-08-04T09:48:14.493Z,3.10
2022-08-04T09:51:01.891Z,3.33
2022-08-04T09:53:57.050Z,2.88
2022-08-04T09:56:42.001Z,3.17
2022-08-04T09:59:30.569Z,3.08
2022-08-04T10:02:14.555Z,2.95
2022-08-04T10:04:53.198Z,3.00
2022-08-04T10:07:59.587Z,2.95
2022-08-04T10:11:07.414Z,2.90
2022-08-04T10:13:55.791Z,2.83
2022-08-04T10:16:49.939Z,2.95
2022-08-04T10:19:36.239Z,2.88
2022-08-04T10:22:28.958Z,2.80
2022-08-04T10:25:37.515Z,2.85
2022-08-04T10:28:24.998Z,2.90
2022-08-04T10:31:10.601Z,3.00
2022-08-04T10:33:56.529Z,2.60
2022-08-04T10:36:48.170Z,2.80
2022-08-04T10:39:43.095Z,2.80
2022-08-04T10:42:34.273Z,2.75
2022-08-04T10:45:21.249Z,2.60
2022-08-04T10:48:10.784Z,2.95
2022-08-04T10:51:05.709Z,2.78
2022-08-04T10:53:47.822Z,2.70
2022-08-04T10:56:35.665Z,2.75
2022-08-04T10:59:20.529Z,3.17
2022-08-04T11:02:05.050Z,2.90
2022-08-04T11:04:50.362Z,2.40
2022-08-04T11:07:32.250Z,2.95
2022-08-04T11:10:13.269Z,2.80
2022-08-04T11:12:57.404Z,2.70
2022-08-04T11:15:42.294Z,2.40
2022-08-04T11:18:43.404Z,2.90
2022-08-04T11:21:25.154Z,2.88
2022-08-04T11:26:53.209Z,2.92
2022-08-04T11:29:42.636Z,2.90
2022-08-04T11:32:34.780Z,2.90
2022-08-04T11:35:19.675Z,2.78
2022-08-04T11:38:05.715Z,2.80
2022-08-04T11:41:02.209Z,2.72
2022-08-04T11:44:01.362Z,2.45
2022-08-04T11:46:46.812Z,2.88
2022-08-04T11:49:57.495Z,2.60
2022-08-04T11:52:37.468Z,2.80
2022-08-04T11:55:19.755Z,2.95
2022-08-04T11:57:57.785Z,2.65
2022-08-04T12:00:42.815Z,2.78
2022-08-04T12:03:37.683Z,2.80
2022-08-04T12:06:25.665Z,2.63
2022-08-04T12:09:14.996Z,2.63
2022-08-04T12:12:05.773Z,3.10
2022-08-04T12:14:56.944Z,2.78
2022-08-04T12:17:52.946Z,2.60
2022-08-04T12:20:41.141Z,2.70
2022-08-04T12:23:26.344Z,2.50
2022-08-04T12:26:09.787Z,2.95
2022-08-04T12:29:09.529Z,2.63
2022-08-04T12:31:52.495Z,2.60
2022-08-04T12:34:43.505Z,2.97
2022-08-04T12:37:32.292Z,2.40
2022-08-04T12:40:28.831Z,2.65
2022-08-04T12:43:14.886Z,2.60
2022-08-04T12:45:56.251Z,2.40
2022-08-04T12:48:34.179Z,2.28
2022-08-04T12:52:06.933Z,2.30
2022-08-04T12:54:14.120Z,2.65
2022-08-04T12:56:51.648Z,2.40
2022-08-04T12:59:28.939Z,2.47
2022-08-04T13:02:11.294Z,3.38
2022-08-04T13:04:51.681Z,2.70
2022-08-04T13:07:43.831Z,2.58
2022-08-04T13:13:08.501Z,2.40
2022-08-04T13:15:47.419Z,2.53
2022-08-04T13:18:37.197Z,2.47
2022-08-04T13:21:19.556Z,2.78
2022-08-04T13:24:20.281Z,2.70
2022-08-04T13:27:04.229Z,2.70
2022-08-04T13:30:24.520Z,2.80
2022-08-04T13:32:43.026Z,2.40
2022-08-04T13:35:20.039Z,2.50
2022-08-04T13:38:00.509Z,2.70
2022-08-04T13:40:42.234Z,2.47
2022-08-04T13:44:16.171Z,2.80
2022-08-04T13:46:35.993Z,2.80
2022-08-04T13:49:42.877Z,2.65
2022-08-04T13:52:15.811Z,2.70
2022-08-04T13:54:53.741Z,3.00
2022-08-04T13:57:38.651Z,3.13
2022-08-04T14:00:29.362Z,2.70
2022-08-04T14:03:23.376Z,2.78
2022-08-04T14:06:21.730Z,2.88
2022-08-04T14:09:04.131Z,2.60
2022-08-04T14:12:09.575Z,2.70
2022-08-04T14:14:52.550Z,2.80
2022-08-04T14:17:31.861Z,2.50
2022-08-04T14:20:11.380Z,2.95
2022-08-04T14:22:49.428Z,2.88
2022-08-04T14:25:35.276Z,2.97
2022-08-04T14:28:14.039Z,2.70
2022-08-04T14:30:53.714Z,3.10
2022-08-04T14:34:03.606Z,2.50
2022-08-04T14:37:16.547Z,2.63
2022-08-04T14:40:17.332Z,2.78
2022-08-04T14:42:54.597Z,2.83
2022-08-04T14:45:36.732Z,2.53
2022-08-04T14:48:20.484Z,2.78
2022-08-04T14:51:00.232Z,2.47
2022-08-04T14:53:41.106Z,2.47
2022-08-04T14:56:37.795Z,3.05
2022-08-04T14:59:18.637Z,2.55
2022-08-04T15:02:00.975Z,2.80
2022-08-04T15:07:20.092Z,2.92
2022-08-04T15:09:58.913Z,3.25
2022-08-04T15:12:37.423Z,3.03
2022-08-04T15:15:35.924Z,3.08
2022-08-04T15:18:15.405Z,3.08
2022-08-04T15:20:56.852Z,2.97
2022-08-04T15:23:38.658Z,2.92
2022-08-04T15:26:20.511Z,2.75
2022-08-04T15:29:01.988Z,2.60
2022-08-04T15:32:05.838Z,3.20
2022-08-04T15:34:51.771Z,3.20
2022-08-04T15:37:40.498Z,3.10
2022-08-04T15:40:32.755Z,3.13
2022-08-04T15:43:35.447Z,3.38
2022-08-04T15:46:42.941Z,3.28
2022-08-04T15:49:23.784Z,2.80
2022-08-04T15:52:12.434Z,3.10
2022-08-04T15:54:53.139Z,3.38
2022-08-04T15:58:03.733Z,3.00
2022-08-04T16:01:19.972Z,3.17
2022-08-04T16:03:59.934Z,3.42
2022-08-04T16:06:48.057Z,3.42
2022-08-04T16:09:45.250Z,3.25
2022-08-04T16:13:02.103Z,3.35
2022-08-04T16:15:45.516Z,3.25
2022-08-04T16:18:44.161Z,3.03
2022-08-04T16:21:26.554Z,3.05
2022-08-04T16:24:22.072Z,2.95
2022-08-04T16:27:00.912Z,3.22
2022-08-04T16:29:42.862Z,2.95
2022-08-04T16:32:23.552Z,3.17
2022-08-04T16:35:06.507Z,3.13
2022-08-04T16:37:47.335Z,3.25
2022-08-04T16:40:37.194Z,3.50
2022-08-04T16:43:18.796Z,3.35
2022-08-04T16:46:02.379Z,3.63
2022-08-04T16:48:40.700Z,3.38
2022-08-04T16:51:17.528Z,3.10
2022-08-04T16:54:04.792Z,3.20
2022-08-04T16:56:42.235Z,3.65
2022-08-04T16:59:19.806Z,3.45
2022-08-04T17:02:00.026Z,3.47
2022-08-04T17:04:39.500Z,3.65
2022-08-04T17:07:18.167Z,3.75
2022-08-04T17:09:58.709Z,3.60
2022-08-04T17:12:35.497Z,3.50
2022-08-04T17:15:25.145Z,3.47
2022-08-04T17:18:25.205Z,3.60
2022-08-04T17:21:07.449Z,4.10
2022-08-04T17:24:15.489Z,3.83
2022-08-04T17:29:45.228Z,4.10
2022-08-04T17:32:24.994Z,3.80
2022-08-04T17:35:05.102Z,3.55
2022-08-04T17:37:52.582Z,4.32
2022-08-04T17:40:30.491Z,4.45
2022-08-04T17:44:04.960Z,3.97
2022-08-04T17:46:28.858Z,4.55
2022-08-04T17:49:16.558Z,4.80
2022-08-04T17:52:07.041Z,3.97
2022-08-04T17:55:03.037Z,3.97
2022-08-04T17:57:40.352Z,4.30
2022-08-04T18:00:20.433Z,4.07
2022-08-04T18:02:57.696Z,4.40
2022-08-04T18:06:02.357Z,4.05
2022-08-04T18:08:40.949Z,3.90
2022-08-04T18:11:29.760Z,4.38
2022-08-04T18:14:18.969Z,4.70
2022-08-04T18:18:19.545Z,4.60
2022-08-04T18:20:03.778Z,4.30
2022-08-04T18:22:42.419Z,4.70
2022-08-04T18:25:23.910Z,4.55
2022-08-04T18:28:26.633Z,4.35
2022-08-04T18:31:04.072Z,4.30
2022-08-04T18:33:42.175Z,13.40
2022-08-04T18:36:33.868Z,5.13
2022-08-04T18:39:15.940Z,4.63
2022-08-04T18:42:03.789Z,4.80
2022-08-04T18:44:52.659Z,4.47
2022-08-04T18:47:30.178Z,4.93
2022-08-04T18:51:00.404Z,4.45
2022-08-04T18:53:06.919Z,4.93
2022-08-04T18:55:56.960Z,5.22
2022-08-04T18:58:37.800Z,4.68
2022-08-04T19:01:16.360Z,4.88
2022-08-04T19:03:57.718Z,4.47
2022-08-04T19:06:36.970Z,4.60
2022-08-04T19:09:16.597Z,4.85
2022-08-04T19:11:59.680Z,4.80
2022-08-04T19:14:45.859Z,4.85
2022-08-04T19:17:54.067Z,5.05
2022-08-04T19:20:26.092Z,5.18
2022-08-04T19:24:27.415Z,4.78
2022-08-04T19:26:05.587Z,5.10
2022-08-04T19:28:48.174Z,4.97
2022-08-04T19:31:34.331Z,5.18
2022-08-04T19:34:34.758Z,5.38
2022-08-04T19:37:16.560Z,5.20
2022-08-04T19:39:56.192Z,5.30
2022-08-04T19:42:37.546Z,5.15
2022-08-04T19:45:16.132Z,5.72
2022-08-04T19:48:15.939Z,6.10
2022-08-04T19:50:53.587Z,5.50
2022-08-04T19:53:37.586Z,5.50
2022-08-04T19:56:20.517Z,5.57
2022-08-04T20:01:45.299Z,5.22
2022-08-04T20:04:25.280Z,11.40
2022-08-04T20:07:03.248Z,6.65
2022-08-04T20:09:40.278Z,6.18
2022-08-04T20:12:30.958Z,5.80
